Time;durP1;ratioP1;P1;durP2;ratioP2;P2;SDS_P1;SDS_P2;PMS_P1;PMS_P2;Temp;Humidity;BMP_temperature;BMP_pressure;BME280_temperature;BME280_humidity;BME280_pressure;Samples;Min_cycle;Max_cycle;Signal;HPM_P1;HPM_P2
2023/09/17 00:00:50;;;;;;;;;;;;;;;13.51;70.98;100996.69;5005406;28;1969;-73
2023/09/17 00:03:41;;;;;;;;;;;;;;;13.51;70.89;101008.34;5014903;28;5324;-72
2023/09/17 00:06:33;;;;;;;;;;;;;;;13.50;71.13;101012.09;5014951;28;1909;-72
2023/09/17 00:09:25;;;;;;;;;;;;;;;13.49;71.16;101010.44;5008333;28;2063;-72
2023/09/17 00:12:17;;;;;;;;;;;;;;;13.48;70.97;101016.91;5002455;28;2218;-72
2023/09/17 00:15:09;;;;;;;;;;;;;;;13.49;71.05;101015.84;5000073;28;2126;-72
2023/09/17 00:18:01;;;;;;;;;;;;;;;13.02;71.04;100949.81;4994313;28;2193;-72
2023/09/17 00:20:53;;;;;;;;;;;;;;;13.46;71.07;101020.91;4995350;28;2233;-72
2023/09/17 00:23:45;;;;;;;;;;;;;;;13.46;71.15;101023.59;4997737;28;2246;-72
2023/09/17 00:26:37;;;;;;;;;;;;;;;13.44;70.99;101026.50;4998815;28;2269;-73
2023/09/17 00:29:29;;;;;;;;;;;;;;;13.44;71.02;101037.34;4997300;28;2305;-72
2023/09/17 00:32:21;;;;;;;;;;;;;;;13.43;70.95;101038.41;4994011;28;2126;-72
2023/09/17 00:35:13;;;;;;;;;;;;;;;13.42;70.95;101041.34;4996804;28;2260;-72
2023/09/17 00:38:05;;;;;;;;;;;;;;;13.40;71.01;101031.56;4995350;28;2364;-73
2023/09/17 00:40:57;;;;;;;;;;;;;;;13.39;70.91;101035.34;5006225;28;2150;-72
2023/09/17 00:43:49;;;;;;;;;;;;;;;13.39;70.81;101039.91;4991709;28;4309;-72
2023/09/17 00:46:41;;;;;;;;;;;;;;;13.38;70.95;101041.81;4993627;28;2365;-73
2023/09/17 00:49:34;;;;;;;;;;;;;;;13.38;70.89;101046.38;4995845;28;2303;-72
2023/09/17 00:52:26;;;;;;;;;;;;;;;13.37;70.73;101052.84;4994867;28;2191;-72
2023/09/17 00:55:18;;;;;;;;;;;;;;;13.36;70.77;101059.31;4992089;28;2257;-72
2023/09/17 00:58:10;;;;;;;;;;;;;;;13.33;70.84;101047.06;5001598;28;2447;-73
2023/09/17 01:01:03;;;;;;;;;;;;;;;13.34;70.89;101053.28;4996835;28;2138;-72
2023/09/17 01:03:55;;;;;;;;;;;;;;;13.32;70.99;101056.22;4993688;28;2249;-73
2023/09/17 01:06:47;;;;;;;;;;;;;;;13.33;70.95;101059.75;4999192;28;2232;-73
2023/09/17 01:09:38;;;;;;;;;;;;;;;13.33;70.78;101057.06;5005099;28;1975;-73
2023/09/17 01:12:30;;;;;;;;;;;;;;;13.31;70.99;101062.69;4995926;28;2067;-74
2023/09/17 01:15:22;;;;;;;;;;;;;;;13.31;70.90;101053.75;4994543;28;2300;-72
2023/09/17 01:18:15;;;;;;;;;;;;;;;13.30;70.72;101054.81;4993292;28;2472;-72
2023/09/17 01:21:07;;;;;;;;;;;;;;;13.29;70.78;101055.84;4995255;28;2291;-74
2023/09/17 01:23:59;;;;;;;;;;;;;;;13.28;70.99;101059.59;4994134;28;2431;-72
2023/09/17 01:26:50;;;;;;;;;;;;;;;13.28;70.88;101067.72;4992340;28;2450;-73
2023/09/17 01:29:42;;;;;;;;;;;;;;;13.26;70.75;101067.94;4992350;28;2253;-72
2023/09/17 01:32:34;;;;;;;;;;;;;;;13.26;70.74;101067.09;4993742;28;2244;-72
2023/09/17 01:35:26;;;;;;;;;;;;;;;13.25;70.74;101070.84;4993307;28;2276;-72
2023/09/17 01:38:18;;;;;;;;;;;;;;;13.21;70.87;101070.47;4996808;28;2256;-72
2023/09/17 01:41:10;;;;;;;;;;;;;;;13.22;70.87;101072.13;4990502;28;2256;-72
2023/09/17 01:44:03;;;;;;;;;;;;;;;13.22;70.68;101068.59;4992678;28;2253;-73
2023/09/17 01:46:54;;;;;;;;;;;;;;;13.22;70.75;101074.00;4991889;28;2161;-71
2023/09/17 01:49:46;;;;;;;;;;;;;;;13.21;70.65;101083.16;4992243;28;2300;-73
2023/09/17 01:52:39;;;;;;;;;;;;;;;13.19;70.71;101081.50;4996356;28;2178;-72
2023/09/17 01:55:31;;;;;;;;;;;;;;;13.17;70.74;101089.00;4993440;28;2565;-73
2023/09/17 01:58:23;;;;;;;;;;;;;;;13.17;70.61;101090.88;4993194;28;2162;-72
2023/09/17 02:01:15;;;;;;;;;;;;;;;13.16;70.54;101083.84;4992902;28;2206;-72
2023/09/17 02:04:07;;;;;;;;;;;;;;;13.15;70.57;101084.91;4993363;28;2172;-72
2023/09/17 02:06:59;;;;;;;;;;;;;;;13.15;70.52;101082.19;4995476;28;2217;-73
2023/09/17 02:09:51;;;;;;;;;;;;;;;13.14;70.57;101091.34;4996615;28;2241;-72
2023/09/17 02:12:43;;;;;;;;;;;;;;;13.13;70.59;101093.22;4993544;28;2200;-72
2023/09/17 02:15:34;;;;;;;;;;;;;;;13.12;70.67;101098.88;4990023;28;3285;-72
2023/09/17 02:18:26;;;;;;;;;;;;;;;13.10;70.60;101090.97;4998567;28;5084;-72
2023/09/17 02:21:18;;;;;;;;;;;;;;;13.10;70.49;101090.97;4998747;28;2243;-72
2023/09/17 02:24:10;;;;;;;;;;;;;;;13.11;70.44;101099.91;5012274;28;1999;-73
2023/09/17 02:27:02;;;;;;;;;;;;;;;13.10;70.48;101101.78;5008060;28;1780;-73
2023/09/17 02:29:54;;;;;;;;;;;;;;;13.08;70.64;101095.75;5020908;28;1737;-72
2023/09/17 02:32:46;;;;;;;;;;;;;;;13.07;70.46;101093.28;5025472;28;994;-72
2023/09/17 02:35:38;;;;;;;;;;;;;;;13.06;70.61;101094.31;5025415;28;5404;-72
2023/09/17 02:38:30;;;;;;;;;;;;;;;13.06;70.28;101102.44;5024160;28;923;-73
2023/09/17 02:41:22;;;;;;;;;;;;;;;13.04;70.52;101108.06;5022976;28;2109;-73
2023/09/17 02:44:14;;;;;;;;;;;;;;;13.03;70.47;101106.44;5031521;28;1940;-72
2023/09/17 02:47:05;;;;;;;;;;;;;;;13.04;70.61;101108.06;5018835;28;4584;-72
2023/09/17 02:49:57;;;;;;;;;;;;;;;13.02;70.36;101112.88;5023823;28;2130;-71
2023/09/17 02:52:49;;;;;;;;;;;;;;;13.01;70.77;101113.09;5004106;28;2256;-72
2023/09/17 02:55:41;;;;;;;;;;;;;;;13.00;70.39;101112.28;4998939;28;2327;-73
2023/09/17 02:58:33;;;;;;;;;;;;;;;12.99;70.63;101115.19;5000789;28;2289;-72
2023/09/17 03:01:25;;;;;;;;;;;;;;;12.98;70.38;101114.38;4998612;28;2312;-72
2023/09/17 03:04:17;;;;;;;;;;;;;;;12.98;70.51;101114.38;4998014;28;2317;-72
2023/09/17 03:07:09;;;;;;;;;;;;;;;12.97;70.31;101123.56;5000811;28;2392;-72
2023/09/17 03:10:07;;;;;;;;;;;;;;;12.96;70.47;101124.56;5002250;28;2307;-72
2023/09/17 03:12:58;;;;;;;;;;;;;;;12.95;70.45;101128.34;5001055;28;2331;-71
2023/09/17 03:15:50;;;;;;;;;;;;;;;12.95;70.49;101128.34;4998785;28;2490;-71
2023/09/17 03:18:42;;;;;;;;;;;;;;;12.93;70.30;101127.72;5000521;28;2267;-72
2023/09/17 03:21:38;;;;;;;;;;;;;;;12.93;70.35;101135.84;5001261;28;2213;-72
2023/09/17 03:24:30;;;;;;;;;;;;;;;12.92;70.25;101134.19;5019980;28;2335;-72
2023/09/17 03:27:22;;;;;;;;;;;;;;;12.89;70.51;101132.75;5026758;28;939;-73
2023/09/17 03:30:14;;;;;;;;;;;;;;;12.89;70.51;101143.56;5015768;28;2079;-72
2023/09/17 03:33:06;;;;;;;;;;;;;;;12.89;70.22;101138.16;5009838;28;1811;-73
2023/09/17 03:35:58;;;;;;;;;;;;;;;12.89;70.18;101140.03;5011868;28;1765;-72
2023/09/17 03:38:50;;;;;;;;;;;;;;;12.88;70.47;101144.63;5012378;28;2114;-73
2023/09/17 03:41:42;;;;;;;;;;;;;;;12.86;70.50;101141.31;5005465;28;2541;-74
2023/09/17 03:44:33;;;;;;;;;;;;;;;12.86;70.46;101143.19;4994398;28;2224;-72
2023/09/17 03:47:25;;;;;;;;;;;;;;;12.85;70.25;101142.38;4995048;28;2170;-72
2023/09/17 03:50:17;;;;;;;;;;;;;;;12.84;70.35;101146.09;4996365;28;2226;-73
2023/09/17 03:53:09;;;;;;;;;;;;;;;12.84;70.16;101147.97;4995115;28;2190;-72
2023/09/17 03:56:01;;;;;;;;;;;;;;;12.83;70.39;101152.56;4997397;28;2286;-72
2023/09/17 03:58:53;;;;;;;;;;;;;;;12.82;70.33;101152.75;4994398;28;2237;-72
2023/09/17 04:01:45;;;;;;;;;;;;;;;12.81;70.19;101151.13;4993569;28;2149;-72
2023/09/17 04:04:36;;;;;;;;;;;;;;;12.80;70.27;101161.09;4995308;28;2206;-72
2023/09/17 04:07:28;;;;;;;;;;;;;;;12.80;70.30;101163.00;4997085;28;2201;-74
2023/09/17 04:10:21;;;;;;;;;;;;;;;12.79;70.37;101169.41;4997230;28;2240;-72
2023/09/17 04:13:13;;;;;;;;;;;;;;;12.78;70.38;101167.78;4998805;28;2260;-73
2023/09/17 04:16:05;;;;;;;;;;;;;;;12.77;70.19;101175.06;4995486;28;2200;-72
2023/09/17 04:18:56;;;;;;;;;;;;;;;12.76;70.41;101183.38;4994132;28;2157;-73
2023/09/17 04:21:48;;;;;;;;;;;;;;;12.75;70.14;101185.25;4993119;28;2197;-72
2023/09/17 04:24:40;;;;;;;;;;;;;;;12.74;70.39;101191.72;4994667;28;2079;-73
2023/09/17 04:27:32;;;;;;;;;;;;;;;12.73;70.36;101187.34;4997765;28;2309;-73
2023/09/17 04:30:23;;;;;;;;;;;;;;;12.73;70.33;101192.75;4997221;28;2122;-72
2023/09/17 04:33:15;;;;;;;;;;;;;;;12.71;70.21;101184.88;4996034;28;2215;-72
2023/09/17 04:36:07;;;;;;;;;;;;;;;12.71;70.22;101198.38;4993798;28;2244;-72
2023/09/17 04:38:59;;;;;;;;;;;;;;;12.70;70.28;101201.28;5002114;28;2232;-73
2023/09/17 04:41:52;;;;;;;;;;;;;;;12.69;70.20;101196.94;5000028;28;2229;-73
2023/09/17 04:44:44;;;;;;;;;;;;;;;12.67;70.27;101202.56;4995976;28;2298;-72
2023/09/17 04:47:35;;;;;;;;;;;;;;;12.67;70.16;101207.97;4995180;28;5378;-72
2023/09/17 04:50:27;;;;;;;;;;;;;;;12.68;70.10;101208.81;5005038;28;2169;-72
2023/09/17 04:53:19;;;;;;;;;;;;;;;12.66;70.11;101208.19;5010466;28;1769;-70
2023/09/17 04:56:11;;;;;;;;;;;;;;;12.66;70.29;101210.91;5012522;28;1858;-73
2023/09/17 04:59:03;;;;;;;;;;;;;;;12.64;70.28;101210.28;5008846;28;1710;-72
2023/09/17 05:01:54;;;;;;;;;;;;;;;12.63;70.16;101217.56;5008987;28;1716;-72
2023/09/17 05:04:46;;;;;;;;;;;;;;;12.63;70.02;101224.84;5006878;28;1989;-73
2023/09/17 05:07:38;;;;;;;;;;;;;;;12.61;70.16;101225.03;4996308;28;5012;-72
2023/09/17 05:10:30;;;;;;;;;;;;;;;12.60;70.24;101227.97;5001016;28;3527;-72
2023/09/17 05:13:22;;;;;;;;;;;;;;;12.59;70.23;101237.97;5012249;28;3692;-72
2023/09/17 05:16:14;;;;;;;;;;;;;;;12.58;70.16;101238.16;5005477;28;2191;-73
2023/09/17 05:19:06;;;;;;;;;;;;;;;12.58;70.20;101235.47;4993751;28;5485;-72
2023/09/17 05:21:58;;;;;;;;;;;;;;;12.57;70.18;101233.81;5013087;28;1872;-72
2023/09/17 05:24:49;;;;;;;;;;;;;;;12.56;70.01;101241.09;5014372;28;2182;-72
2023/09/17 05:27:41;;;;;;;;;;;;;;;12.55;70.00;101241.31;5023049;28;1592;-71
2023/09/17 05:30:33;;;;;;;;;;;;;;;12.54;70.22;101237.78;5018291;28;2079;-72
2023/09/17 05:33:26;;;;;;;;;;;;;;;12.54;70.12;101239.66;5005158;28;2304;-73
2023/09/17 05:36:18;;;;;;;;;;;;;;;12.54;69.97;101255.88;5024697;28;1329;-72
2023/09/17 05:39:09;;;;;;;;;;;;;;;12.52;70.13;101253.38;5020233;28;1089;-72
2023/09/17 05:42:01;;;;;;;;;;;;;;;12.51;69.87;101259.81;5020474;28;1205;-72
2023/09/17 05:44:53;;;;;;;;;;;;;;;12.52;70.15;101260.66;5021837;28;6236;-73
2023/09/17 05:47:44;;;;;;;;;;;;;;;12.49;69.94;101273.53;5015757;28;6275;-73
2023/09/17 05:50:36;;;;;;;;;;;;;;;12.48;69.89;101271.88;5009057;28;4548;-72
2023/09/17 05:53:28;;;;;;;;;;;;;;;12.48;70.15;101279.16;5019201;28;2126;-73
2023/09/17 05:56:20;;;;;;;;;;;;;;;12.46;69.95;101276.66;5008097;28;2297;-72
2023/09/17 05:59:12;;;;;;;;;;;;;;;12.47;69.83;101288.28;4991059;28;2215;-74
2023/09/17 06:02:04;;;;;;;;;;;;;;;12.46;69.87;101287.47;4998744;28;4976;-72
2023/09/17 06:04:56;;;;;;;;;;;;;;;12.44;69.98;101292.28;4995952;28;2137;-72
2023/09/17 06:07:48;;;;;;;;;;;;;;;12.43;70.01;101298.72;4995250;28;3262;-72
2023/09/17 06:10:39;;;;;;;;;;;;;;;12.45;69.83;101306.59;4996932;28;2075;-72
2023/09/17 06:13:31;;;;;;;;;;;;;;;12.43;69.71;101306.81;4996236;28;2182;-73
2023/09/17 06:16:23;;;;;;;;;;;;;;;12.43;70.04;101311.38;4996912;28;2125;-73
2023/09/17 06:19:15;;;;;;;;;;;;;;;12.42;69.95;101305.16;5019992;28;2088;-72
2023/09/17 06:22:07;;;;;;;;;;;;;;;12.41;69.87;101311.63;5027624;28;1014;-74
2023/09/17 06:24:59;;;;;;;;;;;;;;;12.42;70.04;101320.53;5014611;28;4594;-72
2023/09/17 06:27:51;;;;;;;;;;;;;;;12.39;69.88;101316.41;5023001;28;4498;-72
2023/09/17 06:30:43;;;;;;;;;;;;;;;12.39;69.89;101321.78;5023336;28;1057;-73
2023/09/17 06:33:35;;;;;;;;;;;;;;;12.38;70.00;101325.56;5029136;28;975;-73
2023/09/17 06:36:27;;;;;;;;;;;;;;;12.38;69.89;101322.84;5025600;28;1734;-72
2023/09/17 06:39:19;;;;;;;;;;;;;;;12.38;69.89;101324.69;5020319;28;1340;-73
2023/09/17 06:42:11;;;;;;;;;;;;;;;12.36;69.83;101324.09;5030256;28;1521;-72
2023/09/17 06:45:03;;;;;;;;;;;;;;;12.35;69.72;101320.53;5011236;28;4964;-72
2023/09/17 06:47:54;;;;;;;;;;;;;;;12.36;69.60;101321.41;5022001;28;1588;-73
2023/09/17 06:50:46;;;;;;;;;;;;;;;12.35;69.79;101322.41;5029948;28;1627;-73
2023/09/17 06:53:38;;;;;;;;;;;;;;;12.34;69.70;101329.69;5022812;28;1089;-72
2023/09/17 06:56:30;;;;;;;;;;;;;;;12.34;69.73;101331.56;5016606;28;1400;-73
2023/09/17 06:59:23;;;;;;;;;;;;;;;12.32;69.92;101331.78;5018654;28;1447;-71
2023/09/17 07:02:15;;;;;;;;;;;;;;;12.33;69.83;101333.47;5020671;28;1472;-71
2023/09/17 07:05:07;;;;;;;;;;;;;;;12.33;69.77;101340.72;5017598;28;1942;-73
2023/09/17 07:07:59;;;;;;;;;;;;;;;12.31;69.69;101335.53;5019013;28;1446;-71
2023/09/17 07:10:50;;;;;;;;;;;;;;;12.30;69.69;101347.38;5015205;28;5083;-74
2023/09/17 07:13:42;;;;;;;;;;;;;;;12.32;69.72;101344.47;5017321;28;2243;-72
2023/09/17 07:16:34;;;;;;;;;;;;;;;12.30;69.77;101344.69;5028678;28;1394;-73
2023/09/17 07:19:27;;;;;;;;;;;;;;;12.30;69.77;101351.97;5083918;22;3846;-72
2023/09/17 07:22:19;;;;;;;;;;;;;;;12.31;69.53;101364.41;5018705;28;986;-72
2023/09/17 07:25:10;;;;;;;;;;;;;;;12.31;69.58;101367.13;5016919;28;1951;-72
2023/09/17 07:28:07;;;;;;;;;;;;;;;12.30;69.62;101360.06;5031186;28;1605;-73
2023/09/17 07:30:58;;;;;;;;;;;;;;;12.29;69.85;101367.31;5010728;28;4376;-72
2023/09/17 07:33:49;;;;;;;;;;;;;;;12.28;69.83;101369.19;5009641;28;5378;-72
2023/09/17 07:36:41;;;;;;;;;;;;;;;12.29;69.57;101375.41;5022472;28;983;-73
2023/09/17 07:39:33;;;;;;;;;;;;;;;12.28;69.66;101373.78;5027053;28;1108;-73
2023/09/17 07:42:25;;;;;;;;;;;;;;;12.28;69.73;101371.88;5029235;28;1977;-73
2023/09/17 07:45:17;;;;;;;;;;;;;;;12.27;69.74;101381.03;5025068;28;1899;-72
2023/09/17 07:48:09;;;;;;;;;;;;;;;12.29;69.70;101378.13;5028219;28;1355;-72
2023/09/17 07:51:01;;;;;;;;;;;;;;;12.27;69.76;101383.75;5015509;28;1996;-72
2023/09/17 07:53:52;;;;;;;;;;;;;;;12.28;69.62;101384.56;5016918;28;1940;-72
2023/09/17 07:56:44;;;;;;;;;;;;;;;12.26;69.76;101389.34;5028356;28;978;-72
2023/09/17 07:59:36;;;;;;;;;;;;;;;12.26;69.69;101386.66;5025152;28;1311;-72
2023/09/17 08:02:27;;;;;;;;;;;;;;;12.27;69.61;101391.03;5014625;28;1973;-73
2023/09/17 08:05:19;;;;;;;;;;;;;;;12.27;69.58;101385.63;5072243;22;3850;-72
2023/09/17 08:08:11;;;;;;;;;;;;;;;12.27;69.78;101383.75;5023310;28;1905;-72
2023/09/17 08:11:03;;;;;;;;;;;;;;;12.28;69.51;101390.78;5022024;28;1949;-72
2023/09/17 08:13:55;;;;;;;;;;;;;;;12.27;69.59;101393.72;5018989;28;1521;-72
2023/09/17 08:16:47;;;;;;;;;;;;;;;12.27;69.50;101397.25;5034523;28;1006;-73
2023/09/17 08:19:38;;;;;;;;;;;;;;;12.26;69.61;101406.41;5012246;28;1960;-72
2023/09/17 08:22:35;;;;;;;;;;;;;;;12.26;69.71;101403.72;5018502;28;1017;-73
2023/09/17 08:25:27;;;;;;;;;;;;;;;12.27;69.87;101401.81;5023735;28;1956;-72
2023/09/17 08:28:22;;;;;;;;;;;;;;;12.26;69.78;101406.41;5025367;28;1580;-73
2023/09/17 08:31:14;;;;;;;;;;;;;;;12.27;69.70;101405.34;5006946;28;2095;-73
2023/09/17 08:34:06;;;;;;;;;;;;;;;12.26;69.72;101410.94;5022275;28;2257;-71
2023/09/17 08:36:58;;;;;;;;;;;;;;;12.26;69.80;101410.94;5034681;28;910;-72
2023/09/17 08:39:49;;;;;;;;;;;;;;;12.27;69.78;101410.75;5024363;28;2036;-74
2023/09/17 08:42:42;;;;;;;;;;;;;;;12.26;69.76;101411.81;5005545;28;6527;-73
2023/09/17 08:45:33;;;;;;;;;;;;;;;12.27;69.81;101423.44;5014907;28;6258;-72
2023/09/17 08:48:25;;;;;;;;;;;;;;;12.26;69.71;101422.59;4992830;28;2442;-73
2023/09/17 08:51:18;;;;;;;;;;;;;;;12.27;69.74;101423.44;4987632;28;3644;-72
2023/09/17 08:54:09;;;;;;;;;;;;;;;12.27;69.88;101424.25;4998985;28;2718;-74
2023/09/17 08:57:01;;;;;;;;;;;;;;;12.27;69.71;101423.44;4994644;28;2402;-73
2023/09/17 08:59:53;;;;;;;;;;;;;;;12.27;69.89;101426.13;4988914;28;2451;-73
2023/09/17 09:02:45;;;;;;;;;;;;;;;12.27;69.80;101428.84;4996766;28;2427;-72
2023/09/17 09:05:37;;;;;;;;;;;;;;;12.27;69.92;101432.38;5008357;28;2445;-72
2023/09/17 09:08:29;;;;;;;;;;;;;;;12.27;69.91;101429.66;4995945;28;2937;-72
2023/09/17 09:11:21;;;;;;;;;;;;;;;12.27;69.89;101428.84;5003561;28;2182;-74
2023/09/17 09:14:13;;;;;;;;;;;;;;;12.26;69.86;101433.41;5014543;28;2049;-73
2023/09/17 09:17:05;;;;;;;;;;;;;;;12.27;69.88;101437.75;5019093;28;1800;-72
2023/09/17 09:19:57;;;;;;;;;;;;;;;12.30;69.90;101433.00;5006425;28;4808;-73
2023/09/17 09:22:49;;;;;;;;;;;;;;;12.28;69.97;101434.00;5012954;28;5578;-72
2023/09/17 09:25:41;;;;;;;;;;;;;;;12.29;69.87;101434.84;5014200;28;1903;-74
2023/09/17 09:28:33;;;;;;;;;;;;;;;12.30;70.04;101433.00;5020789;28;2139;-74
2023/09/17 09:31:26;;;;;;;;;;;;;;;12.30;69.98;101438.41;5010639;28;2603;-73
2023/09/17 09:34:18;;;;;;;;;;;;;;;12.31;69.86;101431.94;5013494;28;2269;-73
2023/09/17 09:37:10;;;;;;;;;;;;;;;12.31;70.08;101430.06;5021435;28;2096;-73
2023/09/17 09:40:09;;;;;;;;;;;;;;;12.32;70.07;101434.41;5021962;28;1502;-72
2023/09/17 09:43:01;;;;;;;;;;;;;;;12.32;70.01;101431.72;4995640;28;2535;-73
2023/09/17 09:45:53;;;;;;;;;;;;;;;12.32;70.06;101431.72;5021055;28;2256;-73
2023/09/17 09:48:46;;;;;;;;;;;;;;;12.33;69.94;101429.88;5025976;28;2030;-73
2023/09/17 09:51:38;;;;;;;;;;;;;;;12.34;70.01;101434.22;4997667;28;2496;-73
2023/09/17 09:54:29;;;;;;;;;;;;;;;12.34;69.99;101440.44;4997644;28;2930;-73
2023/09/17 09:57:24;;;;;;;;;;;;;;;12.35;70.23;101446.69;5001548;28;2205;-73
2023/09/17 10:00:19;;;;;;;;;;;;;;;12.34;70.16;101443.16;4990589;28;4604;-73
2023/09/17 10:03:11;;;;;;;;;;;;;;;12.38;70.18;101448.97;4995612;28;2181;-73
2023/09/17 10:06:06;;;;;;;;;;;;;;;12.36;70.20;101437.56;4999040;28;2172;-73
2023/09/17 10:08:58;;;;;;;;;;;;;;;12.38;70.16;101435.44;5018244;28;2178;-72
2023/09/17 10:11:50;;;;;;;;;;;;;;;12.37;70.13;101439.19;5015682;28;1557;-74
2023/09/17 10:14:42;;;;;;;;;;;;;;;12.38;70.32;101438.16;5030299;28;1761;-74
2023/09/17 10:17:36;;;;;;;;;;;;;;;12.38;70.09;101438.16;5029231;28;2095;-72
2023/09/17 10:20:28;;;;;;;;;;;;;;;12.40;70.45;101436.09;5009390;28;1838;-73
2023/09/17 10:23:20;;;;;;;;;;;;;;;12.40;70.21;101433.38;5019031;28;1196;-73
2023/09/17 10:26:12;;;;;;;;;;;;;;;12.39;70.33;101429.84;5004961;28;2109;-74
2023/09/17 10:29:04;;;;;;;;;;;;;;;12.40;70.34;101430.69;5015783;28;1020;-74
2023/09/17 10:31:56;;;;;;;;;;;;;;;12.41;70.46;101426.94;5023277;28;1918;-72
2023/09/17 10:34:48;;;;;;;;;;;;;;;12.41;70.36;101422.38;5029906;28;1134;-72
2023/09/17 10:37:40;;;;;;;;;;;;;;;12.41;70.56;101421.53;5006742;28;916;-73
2023/09/17 10:40:32;;;;;;;;;;;;;;;12.43;70.35;101420.28;4997017;28;2404;-74
2023/09/17 10:43:24;;;;;;;;;;;;;;;12.42;70.56;101428.59;4997182;28;2464;-74
2023/09/17 10:46:19;;;;;;;;;;;;;;;12.43;70.73;101427.56;4994288;28;2421;-73
2023/09/17 10:49:11;;;;;;;;;;;;;;;12.42;70.39;101418.63;4993437;28;2141;-72
2023/09/17 10:52:02;;;;;;;;;;;;;;;12.42;70.60;101409.69;4997369;28;2196;-72
2023/09/17 10:54:54;;;;;;;;;;;;;;;12.44;70.71;101415.69;4995097;28;2432;-73
2023/09/17 10:57:47;;;;;;;;;;;;;;;12.45;70.84;101407.41;4996341;28;2154;-73
2023/09/17 11:00:42;;;;;;;;;;;;;;;12.45;70.81;101402.00;4998272;28;2544;-73
2023/09/17 11:03:34;;;;;;;;;;;;;;;12.45;70.64;101402.00;4996490;28;2180;-72
2023/09/17 11:06:26;;;;;;;;;;;;;;;12.46;70.87;101397.41;4999810;28;2507;-73
2023/09/17 11:09:18;;;;;;;;;;;;;;;12.47;70.81;101402.63;4994621;28;4230;-73
2023/09/17 11:12:10;;;;;;;;;;;;;;;11.58;70.69;101268.97;4994541;28;3354;-73
2023/09/17 11:15:02;;;;;;;;;;;;;;;12.49;71.04;101405.91;4995311;28;2154;-73
2023/09/17 11:17:54;;;;;;;;;;;;;;;12.48;70.91;101401.56;4998096;28;2488;-73
2023/09/17 11:20:45;;;;;;;;;;;;;;;12.50;70.95;101406.78;4996635;28;2421;-73
2023/09/17 11:23:37;;;;;;;;;;;;;;;12.50;71.00;101401.38;4996106;28;2218;-74
2023/09/17 11:26:29;;;;;;;;;;;;;;;12.51;71.01;101405.72;4995875;28;2433;-74
2023/09/17 11:29:21;;;;;;;;;;;;;;;12.52;71.04;101398.44;4996460;28;2103;-73
2023/09/17 11:32:13;;;;;;;;;;;;;;;12.53;71.06;101400.94;4997756;28;2043;-74
2023/09/17 11:35:07;;;;;;;;;;;;;;;12.54;71.02;101399.91;4996781;28;2227;-74
2023/09/17 11:37:58;;;;;;;;;;;;;;;12.55;70.93;101406.13;5000918;28;2139;-74
2023/09/17 11:40:49;;;;;;;;;;;;;;;12.55;71.15;101401.53;4996489;28;2293;-73
2023/09/17 11:43:41;;;;;;;;;;;;;;;12.56;71.21;101394.25;4999059;28;2150;-74
2023/09/17 11:46:34;;;;;;;;;;;;;;;12.57;71.01;101399.47;4997324;28;2151;-73
2023/09/17 11:49:25;;;;;;;;;;;;;;;12.57;71.00;101394.06;4995730;28;2160;-72
2023/09/17 11:52:17;;;;;;;;;;;;;;;12.58;71.26;101395.72;5023051;28;2219;-73
2023/09/17 11:55:12;;;;;;;;;;;;;;;12.60;71.39;101392.81;5015058;28;2156;-73
2023/09/17 11:58:03;;;;;;;;;;;;;;;12.60;71.26;101393.63;5003097;28;2194;-73
2023/09/17 12:00:55;;;;;;;;;;;;;;;12.62;71.33;101401.56;5000874;28;4787;-73
2023/09/17 12:03:47;;;;;;;;;;;;;;;12.63;71.27;101395.09;5014857;28;2015;-72
2023/09/17 12:06:39;;;;;;;;;;;;;;;12.63;71.19;101395.91;5025178;28;1957;-73
2023/09/17 12:09:43;;;;;;;;;;;;;;;12.63;71.58;101397.78;5030186;28;1153;-72
2023/09/17 12:12:35;;;;;;;;;;;;;;;12.64;71.40;101394.84;5022912;28;1961;-73
2023/09/17 12:15:27;;;;;;;;;;;;;;;12.66;71.45;101402.78;5012308;28;1557;-72
2023/09/17 12:18:19;;;;;;;;;;;;;;;12.67;71.67;101404.41;5023818;28;1411;-72
2023/09/17 12:21:11;;;;;;;;;;;;;;;12.67;71.46;101397.13;5030675;28;1085;-74
2023/09/17 12:24:08;;;;;;;;;;;;;;;12.68;71.44;101406.09;5022934;28;1991;-73
2023/09/17 12:27:09;;;;;;;;;;;;;;;12.70;71.72;101393.19;5026587;28;1910;-73
2023/09/17 12:30:02;;;;;;;;;;;;;;;12.70;71.52;101395.88;5021680;28;1114;-72
2023/09/17 12:32:54;;;;;;;;;;;;;;;12.71;71.77;101395.69;5018135;28;2059;-73
2023/09/17 12:35:45;;;;;;;;;;;;;;;12.73;71.66;101395.47;5021610;28;2095;-73
2023/09/17 12:38:37;;;;;;;;;;;;;;;12.73;71.79;101398.16;5027571;28;929;-75
2023/09/17 12:41:29;;;;;;;;;;;;;;;12.75;71.87;101401.50;5016512;28;2210;-72
2023/09/17 12:44:22;;;;;;;;;;;;;;;12.75;71.67;101397.97;5013327;28;1549;-72
2023/09/17 12:47:15;;;;;;;;;;;;;;;12.77;71.89;101393.19;5016942;28;1906;-72
2023/09/17 12:50:06;;;;;;;;;;;;;;;12.77;71.71;101390.47;5015433;28;2133;-72
2023/09/17 12:52:58;;;;;;;;;;;;;;;12.78;71.82;101390.25;5014475;28;2137;-72
2023/09/17 12:55:50;;;;;;;;;;;;;;;12.79;72.00;101382.97;5020998;28;1476;-71
2023/09/17 12:58:42;;;;;;;;;;;;;;;12.81;71.81;101381.72;5013638;28;2068;-72
2023/09/17 13:01:33;;;;;;;;;;;;;;;12.82;71.83;101379.81;5005199;28;2120;-73
2023/09/17 13:04:25;;;;;;;;;;;;;;;12.84;72.06;101385.88;5014708;28;2117;-73
2023/09/17 13:07:17;;;;;;;;;;;;;;;12.86;72.00;101381.06;5007135;28;2223;-73
2023/09/17 13:10:09;;;;;;;;;;;;;;;12.85;71.97;101377.56;5014302;28;2537;-72
2023/09/17 13:13:01;;;;;;;;;;;;;;;12.87;72.08;101374.63;5009290;28;2148;-73
2023/09/17 13:15:52;;;;;;;;;;;;;;;12.90;72.00;101379.59;5005704;28;2196;-75
2023/09/17 13:18:44;;;;;;;;;;;;;;;12.95;71.68;101363.56;5015944;28;2149;-72
2023/09/17 13:21:36;;;;;;;;;;;;;;;12.95;71.49;101364.38;5013719;28;2050;-72
2023/09/17 13:24:28;;;;;;;;;;;;;;;12.94;71.97;101357.34;5015751;28;1397;-73
2023/09/17 13:27:20;;;;;;;;;;;;;;;12.95;71.98;101361.69;5007821;28;2182;-72
2023/09/17 13:30:12;;;;;;;;;;;;;;;12.98;71.91;101357.72;5006016;28;2111;-72
2023/09/17 13:33:04;;;;;;;;;;;;;;;12.98;72.06;101352.31;5004954;28;2336;-72
2023/09/17 13:35:56;;;;;;;;;;;;;;;13.00;72.03;101354.78;5006288;28;2143;-72
2023/09/17 13:38:48;;;;;;;;;;;;;;;13.00;72.27;101349.38;5000455;28;2298;-73
2023/09/17 13:41:40;;;;;;;;;;;;;;;13.02;72.38;101339.19;5013536;28;1775;-72
2023/09/17 13:44:33;;;;;;;;;;;;;;;13.02;72.36;101329.19;5011975;28;2221;-72
2023/09/17 13:47:25;;;;;;;;;;;;;;;13.03;72.32;101330.00;5006236;28;2153;-72
2023/09/17 13:50:16;;;;;;;;;;;;;;;13.05;72.35;101323.34;5011078;28;2114;-74
2023/09/17 13:53:08;;;;;;;;;;;;;;;13.05;72.46;101317.13;5006968;28;2004;-72
2023/09/17 13:56:00;;;;;;;;;;;;;;;13.08;72.76;101330.19;5020716;28;2076;-72
2023/09/17 13:58:52;;;;;;;;;;;;;;;13.08;72.46;101325.63;5021616;28;2074;-73
2023/09/17 14:01:45;;;;;;;;;;;;;;;13.10;72.66;101317.31;5006958;28;4734;-72
2023/09/17 14:04:36;;;;;;;;;;;;;;;13.10;72.81;101320.00;5009521;28;4015;-73
2023/09/17 14:07:27;;;;;;;;;;;;;;;13.12;72.75;101312.50;5005975;28;1899;-72
2023/09/17 14:10:19;;;;;;;;;;;;;;;13.14;72.94;101319.34;5017460;28;2073;-72
2023/09/17 14:13:10;;;;;;;;;;;;;;;13.15;72.51;101312.06;5016746;28;2159;-74
2023/09/17 14:16:02;;;;;;;;;;;;;;;13.15;72.68;101323.72;5010789;28;2269;-72
2023/09/17 14:18:54;;;;;;;;;;;;;;;13.17;72.91;101312.66;5012470;28;2562;-73
2023/09/17 14:21:47;;;;;;;;;;;;;;;13.19;72.92;101316.81;5010407;28;2117;-72
2023/09/17 14:27:28;;;;;;;;;;;;;;;13.21;73.05;101322.03;4973143;28;2209;-73
2023/09/17 14:30:22;;;;;;;;;;;;;;;13.23;72.75;101316.38;4975453;28;2066;-73
2023/09/17 14:33:15;;;;;;;;;;;;;;;13.24;72.89;101312.63;4974735;28;2722;-73
2023/09/17 14:36:06;;;;;;;;;;;;;;;13.25;72.78;101311.59;4978539;28;1689;-72
2023/09/17 14:38:58;;;;;;;;;;;;;;;13.27;73.11;101306.81;4975285;28;4438;-73
2023/09/17 14:41:52;;;;;;;;;;;;;;;13.27;73.09;101296.81;4982209;28;2147;-72
2023/09/17 14:44:44;;;;;;;;;;;;;;;13.29;72.82;101302.81;4986806;28;4347;-73
2023/09/17 14:47:38;;;;;;;;;;;;;;;13.30;73.10;101312.63;4972293;28;1961;-73
2023/09/17 14:50:30;;;;;;;;;;;;;;;13.31;72.91;101313.44;4970458;28;4727;-73
2023/09/17 14:53:22;;;;;;;;;;;;;;;13.32;72.92;101315.91;4978354;28;1940;-72
2023/09/17 14:56:14;;;;;;;;;;;;;;;13.34;73.06;101311.13;4986812;28;932;-73
2023/09/17 14:59:06;;;;;;;;;;;;;;;13.35;73.28;101306.53;4987996;28;1370;-73